Time;durP1;ratioP1;P1;durP2;ratioP2;P2;SDS_P1;SDS_P2;PMS_P1;PMS_P2;Temp;Humidity;BMP_temperature;BMP_pressure;BME280_temperature;BME280_humidity;BME280_pressure;Samples;Min_cycle;Max_cycle;Signal;HPM_P1;HPM_P2
2021/04/07 00:02:22;;;;;;;17.52;3.25;;;;;;;0.70;100.00;101548.84;6134359;23;19994;-80
2021/04/07 00:05:00;;;;;;;12.65;1.98;;;;;;;0.56;100.00;101544.41;6135520;23;20057;-80
2021/04/07 00:07:26;;;;;;;5.45;1.67;;;;;;;0.59;100.00;101547.88;6134300;23;20052;-80
2021/04/07 00:09:51;;;;;;;13.90;2.20;;;;;;;0.64;100.00;101560.94;6134759;23;20002;-79
2021/04/07 00:12:16;;;;;;;6.35;1.60;;;;;;;0.68;100.00;101562.69;6134186;23;20101;-79
2021/04/07 00:14:42;;;;;;;11.82;1.50;;;;;;;0.68;100.00;101579.19;6109387;23;20002;-79
2021/04/07 00:17:07;;;;;;;11.95;2.70;;;;;;;0.71;100.00;101579.22;6107993;23;20010;-80
2021/04/07 00:19:32;;;;;;;7.07;1.48;;;;;;;0.71;100.00;101576.59;6135102;23;20380;-80
2021/04/07 00:21:58;;;;;;;11.15;2.03;;;;;;;0.75;100.00;101570.56;6162657;23;20001;-79
2021/04/07 00:24:25;;;;;;;11.70;1.60;;;;;;;0.75;100.00;101572.28;6166461;23;20009;-81
2021/04/07 00:26:50;;;;;;;12.35;1.75;;;;;;;0.75;100.00;101567.06;6167692;23;20056;-82
2021/04/07 00:29:16;;;;;;;14.98;3.35;;;;;;;0.75;100.00;101573.19;6168077;23;20005;-82
2021/04/07 00:31:41;;;;;;;16.30;2.17;;;;;;;0.75;100.00;101567.97;6168027;23;20059;-82
2021/04/07 00:34:06;;;;;;;18.40;2.03;;;;;;;0.85;100.00;101568.88;6165894;23;20485;-79
2021/04/07 00:36:31;;;;;;;11.50;2.30;;;;;;;1.02;100.00;101566.41;6167257;23;20053;-80
2021/04/07 00:38:57;;;;;;;21.80;2.50;;;;;;;1.19;100.00;101558.69;6166953;23;20085;-81
2021/04/07 00:41:22;;;;;;;18.55;3.58;;;;;;;1.36;100.00;101557.06;6166895;23;20006;-79
2021/04/07 00:43:47;;;;;;;15.52;3.25;;;;;;;1.54;100.00;101556.25;6165334;23;20001;-79
2021/04/07 00:46:13;;;;;;;15.70;2.65;;;;;;;1.55;100.00;101551.03;6165869;23;20005;-80
2021/04/07 00:48:38;;;;;;;6.18;1.83;;;;;;;1.59;100.00;101554.53;6166292;23;20021;-82
2021/04/07 00:51:04;;;;;;;10.45;2.35;;;;;;;1.63;100.00;101548.47;6141493;23;20082;-82
2021/04/07 00:53:29;;;;;;;19.65;2.55;;;;;;;1.53;100.00;101534.53;6140881;23;20009;-81
2021/04/07 00:55:55;;;;;;;12.95;2.90;;;;;;;1.52;100.00;101535.41;6165946;23;20009;-81
2021/04/07 00:58:20;;;;;;;9.38;2.05;;;;;;;1.48;100.00;101533.66;6166213;23;20005;-81
2021/04/07 01:00:47;;;;;;;18.85;2.38;;;;;;;1.48;100.00;101531.06;6165291;23;20009;-82
2021/04/07 01:03:13;;;;;;;11.82;1.48;;;;;;;1.45;100.00;101541.44;6165795;23;20316;-81
2021/04/07 01:05:40;;;;;;;12.02;1.70;;;;;;;1.46;100.00;101540.59;6165739;23;20008;-82
2021/04/07 01:08:06;;;;;;;9.30;1.58;;;;;;;1.41;100.00;101552.75;6166650;23;20001;-81
2021/04/07 01:10:31;;;;;;;7.55;1.08;;;;;;;1.54;100.00;101541.50;6165093;23;20001;-81
2021/04/07 01:12:56;;;;;;;12.93;1.75;;;;;;;1.41;100.00;101537.13;6165108;23;20016;-81
2021/04/07 01:15:23;;;;;;;7.53;1.65;;;;;;;1.54;100.00;101540.63;6164614;23;20113;-82
2021/04/07 01:17:48;;;;;;;8.77;1.55;;;;;;;1.44;100.00;101531.91;6165119;23;20006;-83
2021/04/07 01:20:17;;;;;;;6.00;1.77;;;;;;;1.69;100.00;101545.88;6164742;23;20021;-82
2021/04/07 01:22:47;;;;;;;18.40;2.50;;;;;;;1.70;100.00;101545.00;6164685;23;20405;-81
2021/04/07 01:25:12;;;;;;;10.95;1.52;;;;;;;1.70;100.00;101542.41;6165054;23;20029;-82
2021/04/07 01:27:39;;;;;;;13.02;2.00;;;;;;;1.71;100.00;101561.53;6137423;23;20602;-81
2021/04/07 01:30:15;;;;;;;19.30;2.63;;;;;;;1.71;100.00;101567.63;6164686;23;20028;-81
2021/04/07 01:32:41;;;;;;;;;;;;;;;1.56;100.00;101575.38;6165083;23;20029;-81
2021/04/07 01:35:08;;;;;;;9.50;1.40;;;;;;;1.38;100.00;101572.69;6164530;23;20626;-82
2021/04/07 01:37:35;;;;;;;16.00;2.08;;;;;;;1.27;100.00;101568.28;6163077;23;20135;-82
2021/04/07 01:40:04;;;;;;;16.33;3.22;;;;;;;1.22;100.00;101556.13;6163836;23;20408;-81
2021/04/07 01:42:31;;;;;;;13.18;2.53;;;;;;;1.16;100.00;101550.88;6163336;23;20396;-81
2021/04/07 01:44:59;;;;;;;12.43;1.60;;;;;;;1.17;100.00;101544.81;6163867;23;20008;-82
2021/04/07 01:47:25;;;;;;;15.10;1.65;;;;;;;1.12;100.00;101544.78;6163950;23;20025;-81
2021/04/07 01:49:51;;;;;;;3.70;1.42;;;;;;;1.06;100.00;101542.16;6164383;23;20012;-81
2021/04/07 01:52:16;;;;;;;6.90;1.55;;;;;;;0.91;100.00;101537.72;6137026;23;20005;-81
2021/04/07 01:54:41;;;;;;;6.78;1.90;;;;;;;0.97;100.00;101542.09;6163994;23;20054;-81
2021/04/07 01:57:08;;;;;;;4.43;1.08;;;;;;;0.89;100.00;101531.59;6163763;23;20360;-82
2021/04/07 01:59:33;;;;;;;7.75;1.65;;;;;;;0.86;100.00;101520.34;6164019;23;20084;-81
2021/04/07 02:01:59;;;;;;;8.23;1.40;;;;;;;0.86;100.00;101526.41;6162834;23;20005;-81
2021/04/07 02:04:26;;;;;;;12.63;1.58;;;;;;;1.01;100.00;101523.03;6164155;23;20010;-81
2021/04/07 02:06:52;;;;;;;7.80;1.90;;;;;;;1.03;100.00;101516.09;6164235;23;20004;-82
2021/04/07 02:09:18;;;;;;;10.75;1.98;;;;;;;0.98;100.00;101510.84;6163416;23;20005;-82
2021/04/07 02:11:48;;;;;;;10.32;1.83;;;;;;;1.07;100.00;101517.84;6163452;23;20029;-81
2021/04/07 02:14:22;;;;;;;14.63;2.33;;;;;;;1.08;100.00;101508.31;6137204;23;20032;-81
2021/04/07 02:16:55;;;;;;;10.57;1.63;;;;;;;1.17;100.00;101511.81;6138238;23;20077;-81
2021/04/07 02:19:21;;;;;;;13.48;1.80;;;;;;;1.21;100.00;101510.97;6136992;23;20084;-82
2021/04/07 02:22:02;;;;;;;9.05;1.65;;;;;;;1.14;100.00;101510.94;6163182;23;20025;-82
2021/04/07 02:24:28;;;;;;;12.55;1.92;;;;;;;0.98;100.00;101502.16;6137311;23;20054;-81
2021/04/07 02:26:53;;;;;;;20.05;3.30;;;;;;;0.87;100.00;101491.72;6164846;23;20317;-82
2021/04/07 02:29:18;;;;;;;17.17;3.05;;;;;;;0.88;100.00;101496.03;6165379;23;20289;-82
2021/04/07 02:31:44;;;;;;;16.27;2.33;;;;;;;0.95;100.00;101499.53;6164823;23;20009;-82
2021/04/07 02:34:11;;;;;;;10.77;2.13;;;;;;;0.79;100.00;101490.78;6166056;23;20009;-82
2021/04/07 02:36:36;;;;;;;12.80;1.58;;;;;;;0.98;100.00;101495.22;6164793;23;20005;-81
2021/04/07 02:39:01;;;;;;;12.88;1.98;;;;;;;1.04;100.00;101487.44;6165168;23;20050;-83
2021/04/07 02:41:27;;;;;;;12.77;3.38;;;;;;;1.49;100.00;101490.22;6163798;23;20012;-82
2021/04/07 02:43:52;;;;;;;18.13;2.53;;;;;;;1.88;100.00;101494.69;6137287;23;20009;-81
2021/04/07 02:46:17;;;;;;;18.77;2.30;;;;;;;2.21;100.00;101485.13;6163138;23;20008;-81
2021/04/07 02:48:43;;;;;;;10.35;1.98;;;;;;;2.47;100.00;101474.72;6162963;23;20002;-81
2021/04/07 02:51:08;;;;;;;16.10;2.58;;;;;;;2.61;100.00;101478.19;6136364;23;20009;-81
2021/04/07 02:53:33;;;;;;;12.40;3.15;;;;;;;2.53;100.00;101474.69;6163768;23;20048;-81
2021/04/07 02:55:58;;;;;;;13.43;2.20;;;;;;;2.70;100.00;101498.16;6163362;23;20009;-80
2021/04/07 02:58:24;;;;;;;21.48;3.28;;;;;;;2.59;100.00;101522.53;6162889;23;20057;-80
2021/04/07 03:01:47;;;;;;;5.97;1.80;;;;;;;-145.48;100.00;59605.97;6163406;23;20009;-82
2021/04/07 03:04:14;;;;;;;9.20;1.90;;;;;;;12.32;100.00;101522.53;6138519;23;20382;-82
2021/04/07 03:06:47;;;;;;;5.72;1.67;;;;;;;2.59;100.00;101522.53;6165287;23;20028;-82
2021/04/07 03:09:18;;;;;;;6.13;1.45;;;;;;;2.59;100.00;101522.53;6164920;23;20021;-83
2021/04/07 03:12:42;;;;;;;9.23;2.53;;;;;;;-145.48;100.00;59605.97;6164039;23;20620;-82
2021/04/07 03:16:06;;;;;;;5.60;1.52;;;;;;;-145.48;100.00;59605.97;6162371;23;20025;-81
2021/04/07 03:19:30;;;;;;;10.40;2.50;;;;;;;-145.48;100.00;59605.97;6163862;23;20001;-81
2021/04/07 03:22:54;;;;;;;14.25;3.20;;;;;;;-145.48;100.00;59605.97;6162219;23;20025;-81
2021/04/07 03:26:18;;;;;;;17.13;2.17;;;;;;;-145.48;100.00;59605.97;6137415;23;20001;-81
2021/04/07 03:29:42;;;;;;;19.10;2.47;;;;;;;-145.48;100.00;59605.97;6163192;23;20471;-81
2021/04/07 03:33:06;;;;;;;17.05;3.47;;;;;;;-145.48;100.00;59605.97;6162406;23;20012;-81
2021/04/07 03:36:29;;;;;;;16.65;5.20;;;;;;;-145.48;100.00;59605.97;6162529;23;20005;-81
2021/04/07 03:39:53;;;;;;;10.23;2.38;;;;;;;-145.48;100.00;59605.97;6137012;23;20039;-81
2021/04/07 03:43:18;;;;;;;17.52;2.35;;;;;;;-145.48;100.00;59605.97;6162770;23;20009;-84
2021/04/07 03:45:50;;;;;;;14.63;2.60;;;;;;;1.08;100.00;101516.97;6158090;23;20503;-82
2021/04/07 03:48:17;;;;;;;11.77;2.83;;;;;;;0.89;100.00;101518.59;6163701;23;20005;-81
2021/04/07 03:50:43;;;;;;;19.35;3.63;;;;;;;0.73;100.00;101537.59;6163415;23;20005;-82
2021/04/07 03:53:10;;;;;;;8.80;2.30;;;;;;;0.66;100.00;101515.88;6151213;23;20352;-81
2021/04/07 03:55:37;;;;;;;9.02;2.72;;;;;;;0.71;100.00;101518.50;6164655;23;20140;-83
2021/04/07 03:58:03;;;;;;;7.82;2.38;;;;;;;0.81;100.00;101512.50;6165741;23;20001;-82
2021/04/07 04:00:29;;;;;;;4.75;1.85;;;;;;;0.87;100.00;101514.25;6165953;23;20048;-83
2021/04/07 04:02:55;;;;;;;11.23;2.28;;;;;;;0.85;100.00;101503.81;6165705;23;20011;-83
2021/04/07 04:05:21;;;;;;;12.30;2.45;;;;;;;0.85;100.00;101511.63;6165873;23;20001;-83
2021/04/07 04:07:46;;;;;;;13.45;2.17;;;;;;;0.84;100.00;101515.09;6159845;23;20112;-82
2021/04/07 04:10:12;;;;;;;6.38;2.55;;;;;;;0.85;100.00;101503.81;6165711;23;20013;-82
2021/04/07 04:12:38;;;;;;;11.30;1.83;;;;;;;0.85;100.00;101502.94;6139880;23;20016;-83
2021/04/07 04:15:05;;;;;;;12.73;2.25;;;;;;;0.82;100.00;101500.34;6166729;23;20002;-82
2021/04/07 04:17:31;;;;;;;12.65;3.25;;;;;;;0.78;100.00;101505.53;6139380;23;20039;-82
2021/04/07 04:19:56;;;;;;;4.85;2.65;;;;;;;0.71;100.00;101480.34;6165241;23;20021;-83
2021/04/07 04:22:21;;;;;;;14.75;3.30;;;;;;;0.69;100.00;101479.44;6165616;23;20037;-83
2021/04/07 04:24:47;;;;;;;10.43;2.30;;;;;;;0.70;100.00;101472.50;6166189;23;20064;-83
2021/04/07 04:27:13;;;;;;;8.55;2.10;;;;;;;0.66;100.00;101481.19;6140842;23;20005;-82
2021/04/07 04:29:38;;;;;;;9.20;2.28;;;;;;;0.65;100.00;101487.22;6141953;23;20017;-82
2021/04/07 04:32:03;;;;;;;17.92;2.50;;;;;;;0.70;100.00;101481.22;6142242;23;20010;-82
2021/04/07 04:34:29;;;;;;;15.48;3.42;;;;;;;0.69;100.00;101473.38;6167261;23;20012;-82
2021/04/07 04:36:54;;;;;;;11.40;2.33;;;;;;;0.69;100.00;101473.38;6164679;23;20013;-82
2021/04/07 04:39:19;;;;;;;9.85;2.88;;;;;;;0.73;100.00;101469.94;6139454;23;20001;-82
2021/04/07 04:41:45;;;;;;;16.25;3.55;;;;;;;0.69;100.00;101466.44;6164804;23;20010;-82
2021/04/07 04:44:10;;;;;;;14.38;3.58;;;;;;;0.77;100.00;101484.72;6164717;23;20044;-82
2021/04/07 04:46:35;;;;;;;17.42;3.40;;;;;;;0.69;100.00;101458.63;6139240;23;20446;-83
2021/04/07 04:49:01;;;;;;;10.30;3.10;;;;;;;0.71;100.00;101467.31;6139559;23;20012;-83
2021/04/07 04:51:27;;;;;;;15.57;2.88;;;;;;;0.65;100.00;101475.09;6138565;23;20005;-82
2021/04/07 04:53:52;;;;;;;11.80;2.35;;;;;;;0.69;100.00;101479.44;6138685;23;20339;-82
2021/04/07 04:56:18;;;;;;;20.30;3.95;;;;;;;0.66;100.00;101458.63;6137365;23;20052;-82
2021/04/07 04:58:43;;;;;;;14.95;4.20;;;;;;;0.66;100.00;101482.03;6145781;23;20005;-82
2021/04/07 05:01:09;;;;;;;5.72;1.67;;;;;;;0.62;100.00;101482.88;6164746;23;20001;-83
2021/04/07 05:03:35;;;;;;;22.48;3.00;;;;;;;0.59;100.00;101488.03;6161918;23;20006;-82
2021/04/07 05:06:01;;;;;;;18.60;1.77;;;;;;;0.50;100.00;101472.38;6136802;23;20012;-82
2021/04/07 05:08:26;;;;;;;7.90;2.58;;;;;;;0.45;100.00;101474.97;6160660;23;20005;-82
2021/04/07 05:10:51;;;;;;;21.77;4.18;;;;;;;0.38;100.00;101480.09;6161400;23;20009;-82
2021/04/07 05:13:16;;;;;;;22.23;4.95;;;;;;;0.34;100.00;101489.59;6163227;23;20012;-82
2021/04/07 05:15:42;;;;;;;29.30;3.88;;;;;;;0.31;100.00;101470.53;6162584;23;20005;-81
2021/04/07 05:18:14;;;;;;;22.50;5.68;;;;;;;0.31;100.00;101468.78;6162939;23;20029;-80
2021/04/07 05:20:40;;;;;;;22.45;5.55;;;;;;;0.35;100.00;101483.56;6161402;23;20064;-80
2021/04/07 05:23:06;;;;;;;16.63;4.00;;;;;;;0.42;100.00;101454.13;6163255;23;20036;-81
2021/04/07 05:25:31;;;;;;;16.20;3.17;;;;;;;0.57;100.00;101470.69;6160983;23;20053;-78
2021/04/07 05:27:57;;;;;;;40.83;5.38;;;;;;;0.67;100.00;101470.75;6160923;23;20025;-78
2021/04/07 05:30:22;;;;;;;14.95;3.72;;;;;;;0.85;100.00;101466.50;6150641;23;20360;-80
2021/04/07 05:32:48;;;;;;;23.20;4.50;;;;;;;0.87;100.00;101464.81;6158902;23;20467;-78
2021/04/07 05:35:13;;;;;;;18.00;4.55;;;;;;;0.88;100.00;101469.16;6157058;23;20055;-78
2021/04/07 05:37:38;;;;;;;22.15;4.43;;;;;;;0.84;100.00;101480.41;6160216;23;20006;-78
2021/04/07 05:40:05;;;;;;;19.65;4.25;;;;;;;0.85;100.00;101472.59;6166517;23;20005;-80
2021/04/07 05:42:30;;;;;;;21.77;6.20;;;;;;;0.89;100.00;101482.16;6141591;23;20005;-81
2021/04/07 05:44:55;;;;;;;15.88;4.55;;;;;;;0.88;100.00;101490.84;6155337;23;20033;-82
2021/04/07 05:47:20;;;;;;;22.25;6.00;;;;;;;0.89;100.00;101482.16;6125841;23;20471;-81
2021/04/07 05:49:46;;;;;;;21.80;5.30;;;;;;;0.88;100.00;101477.81;6145372;23;20037;-81
2021/04/07 05:52:11;;;;;;;12.55;4.32;;;;;;;1.01;100.00;101473.56;6150239;23;20008;-80
2021/04/07 05:54:36;;;;;;;31.75;6.57;;;;;;;1.10;100.00;101485.72;6150365;23;20438;-81
2021/04/07 05:57:02;;;;;;;17.02;4.88;;;;;;;1.28;100.00;101481.47;6151190;23;20020;-81
2021/04/07 05:59:27;;;;;;;19.05;4.32;;;;;;;1.45;100.00;101485.88;6150131;23;20084;-79
2021/04/07 06:01:53;;;;;;;29.52;6.00;;;;;;;1.59;100.00;101468.53;6123570;23;20009;-78
2021/04/07 06:04:18;;;;;;;20.88;5.05;;;;;;;1.76;100.00;101468.59;6124413;23;20180;-78
2021/04/07 06:06:43;;;;;;;17.40;4.22;;;;;;;2.03;100.00;101471.22;6123521;23;20005;-79
2021/04/07 06:09:08;;;;;;;38.40;6.07;;;;;;;2.39;100.00;101461.66;6124880;23;20061;-79
2021/04/07 06:11:34;;;;;;;27.90;3.55;;;;;;;2.52;100.00;101462.53;6150562;23;20075;-80
2021/04/07 06:13:59;;;;;;;21.58;4.20;;;;;;;2.65;100.00;101460.75;6125649;23;20093;-79
2021/04/07 06:16:24;;;;;;;27.08;5.18;;;;;;;2.75;100.00;101473.78;6124584;23;20534;-79
2021/04/07 06:18:52;;;;;;;25.63;3.40;;;;;;;2.77;100.00;101490.31;6107039;23;20116;-79
2021/04/07 06:21:17;;;;;;;22.30;4.47;;;;;;;2.80;100.00;101478.97;6120471;23;20028;-79
2021/04/07 06:23:43;;;;;;;29.50;6.57;;;;;;;2.89;100.00;101483.31;6154007;23;20029;-79
2021/04/07 06:26:08;;;;;;;31.08;6.00;;;;;;;2.89;100.00;101489.41;6152406;23;20001;-79
2021/04/07 06:28:33;;;;;;;20.45;5.20;;;;;;;3.08;100.00;101500.69;6150768;23;20013;-80
2021/04/07 06:30:59;;;;;;;38.50;8.20;;;;;;;3.04;100.00;101502.44;6150624;23;20005;-79
2021/04/07 06:33:27;;;;;;;40.55;6.15;;;;;;;3.05;100.00;101509.38;6150441;23;20021;-79
2021/04/07 06:36:02;;;;;;;19.45;4.70;;;;;;;3.08;100.00;101513.75;6149675;23;20448;-79
2021/04/07 06:38:27;;;;;;;37.58;6.03;;;;;;;3.14;100.00;101518.94;6140487;23;20044;-80
2021/04/07 06:40:54;;;;;;;33.00;5.13;;;;;;;3.29;100.00;101523.25;6127980;23;20705;-82
2021/04/07 06:43:23;;;;;;;26.83;5.28;;;;;;;3.36;100.00;101520.63;6155293;23;20005;-80
2021/04/07 06:45:49;;;;;;;28.05;4.47;;;;;;;3.40;100.00;101531.03;6126812;23;20009;-79
2021/04/07 06:48:16;;;;;;;30.65;4.07;;;;;;;3.36;100.00;101528.47;6155039;23;20725;-81
2021/04/07 06:50:47;;;;;;;22.00;6.13;;;;;;;3.44;100.00;101545.84;6125863;23;20002;-80
2021/04/07 06:53:12;;;;;;;27.83;4.03;;;;;;;3.51;100.00;101531.84;6154319;23;20081;-80
2021/04/07 06:55:39;;;;;;;20.20;3.78;;;;;;;3.53;100.00;101548.44;6125106;23;20083;-80
2021/04/07 06:58:06;;;;;;;29.65;6.03;;;;;;;3.54;100.00;101545.78;6128710;23;20024;-79
2021/04/07 07:00:32;;;;;;;44.85;5.72;;;;;;;3.56;100.00;101559.72;6153677;23;20002;-80
2021/04/07 07:03:06;;;;;;;29.90;4.60;;;;;;;3.64;100.00;101544.88;6152852;23;20013;-80
2021/04/07 07:05:33;;;;;;;32.17;6.47;;;;;;;3.73;100.00;101564.03;6144289;23;20092;-80
2021/04/07 07:08:01;;;;;;;24.42;4.35;;;;;;;3.77;100.00;101579.69;6124801;23;20029;-79
2021/04/07 07:10:37;;;;;;;40.20;4.78;;;;;;;3.79;100.00;101577.94;6125619;23;20009;-79
2021/04/07 07:13:15;;;;;;;32.75;4.78;;;;;;;3.93;100.00;101577.88;6153765;23;20014;-81
2021/04/07 07:15:40;;;;;;;31.45;6.85;;;;;;;4.02;100.00;101582.19;6153520;23;20392;-81
2021/04/07 07:18:06;;;;;;;35.92;6.07;;;;;;;3.94;100.00;101586.56;6153430;23;20012;-80
2021/04/07 07:20:39;;;;;;;30.27;5.07;;;;;;;3.99;100.00;101597.88;6123099;23;20364;-81
2021/04/07 07:23:04;;;;;;;36.03;6.00;;;;;;;4.02;100.00;101597.88;6125526;23;20018;-80
2021/04/07 07:25:31;;;;;;;35.00;7.72;;;;;;;4.07;100.00;101617.03;6127182;23;20010;-80
2021/04/07 07:28:05;;;;;;;24.92;6.70;;;;;;;4.00;100.00;101613.56;6124634;23;20013;-79
2021/04/07 07:30:43;;;;;;;43.05;5.57;;;;;;;3.99;100.00;101611.81;6123959;23;20005;-78
2021/04/07 07:33:17;;;;;;;26.70;4.72;;;;;;;3.92;100.00;101627.56;6126470;23;20013;-79
2021/04/07 07:35:45;;;;;;;55.85;8.43;;;;;;;3.93;100.00;101634.53;6126373;23;20110;-79
2021/04/07 07:38:10;;;;;;;45.03;6.63;;;;;;;3.83;100.00;101634.56;6125269;23;20081;-78
2021/04/07 07:40:36;;;;;;;44.33;7.88;;;;;;;3.81;100.00;101624.97;6124380;23;20078;-79
2021/04/07 07:43:03;;;;;;;39.92;7.20;;;;;;;3.87;100.00;101641.53;6124260;23;20688;-78
2021/04/07 07:45:32;;;;;;;45.85;8.48;;;;;;;3.92;100.00;101640.66;6125158;23;20305;-80
2021/04/07 07:48:07;;;;;;;42.13;7.95;;;;;;;3.96;100.00;101642.34;6126955;23;20005;-80
2021/04/07 07:50:37;;;;;;;51.88;7.18;;;;;;;4.05;100.00;101656.25;6124899;23;20417;-81
2021/04/07 07:53:13;;;;;;;52.65;8.00;;;;;;;4.18;100.00;101657.09;6126485;23;20014;-81
2021/04/07 07:55:39;;;;;;;37.00;6.35;;;;;;;4.18;100.00;101662.31;6126267;23;19998;-82
2021/04/07 07:58:05;;;;;;;51.83;6.75;;;;;;;4.21;100.00;101680.59;6127873;23;20017;-82
2021/04/07 08:00:31;;;;;;;40.03;6.50;;;;;;;4.21;100.00;101672.75;6127569;23;20053;-79
2021/04/07 08:03:09;;;;;;;36.22;8.45;;;;;;;4.25;100.00;101682.34;6123600;23;20005;-81
2021/04/07 08:05:35;;;;;;;38.03;5.68;;;;;;;4.25;100.00;101677.09;6126756;23;20010;-81
2021/04/07 08:08:03;;;;;;;32.13;5.32;;;;;;;4.30;100.00;101679.69;6127265;23;20006;-81
2021/04/07 08:10:32;;;;;;;28.65;4.25;;;;;;;4.39;100.00;101677.91;6128600;23;20029;-82
2021/04/07 08:13:10;;;;;;;50.13;7.95;;;;;;;4.63;100.00;101676.03;6127314;23;20006;-82
2021/04/07 08:15:36;;;;;;;41.72;7.15;;;;;;;4.72;100.00;101680.31;6126622;23;20339;-82
2021/04/07 08:18:05;;;;;;;53.42;7.32;;;;;;;4.83;100.00;101699.47;6124060;23;20741;-81
2021/04/07 08:20:31;;;;;;;46.33;6.85;;;;;;;4.99;100.00;101692.34;6123060;23;20060;-81
2021/04/07 08:22:57;;;;;;;47.00;7.00;;;;;;;5.07;100.00;101693.13;6124923;23;20001;-81
2021/04/07 08:25:25;;;;;;;31.52;5.90;;;;;;;5.18;100.00;101691.31;6125133;23;20061;-78
2021/04/07 08:27:52;;;;;;;41.47;6.82;;;;;;;5.40;100.00;101697.22;6124845;23;20013;-79
2021/04/07 08:30:20;;;;;;;35.90;6.88;;;;;;;5.39;100.00;101700.75;6125530;23;20005;-80
2021/04/07 08:32:56;;;;;;;33.33;5.35;;;;;;;5.35;100.00;101718.25;6124662;23;20671;-83
2021/04/07 08:35:24;;;;;;;32.30;6.20;;;;;;;5.30;100.00;101709.53;6126832;23;20763;-80
2021/04/07 08:38:05;;;;;;;41.30;5.50;;;;;;;5.33;100.00;101733.13;6126457;23;20005;-82
2021/04/07 08:40:39;;;;;;;37.63;5.93;;;;;;;5.37;100.00;101713.88;6124800;23;20001;-81
2021/04/07 08:43:11;;;;;;;24.23;3.42;;;;;;;5.47;100.00;101712.00;6123802;23;20332;-81
2021/04/07 08:45:44;;;;;;;32.17;7.53;;;;;;;5.60;100.00;101728.50;6125063;23;20001;-79
2021/04/07 08:48:18;;;;;;;34.30;5.45;;;;;;;5.69;100.00;101720.56;6124309;23;20420;-79
2021/04/07 08:50:45;;;;;;;27.13;5.97;;;;;;;5.52;100.00;101725.06;6124801;23;20671;-81
2021/04/07 08:53:12;;;;;;;34.22;5.75;;;;;;;5.35;100.00;101743.59;6125891;23;20451;-82
2021/04/07 08:55:42;;;;;;;25.95;5.35;;;;;;;5.41;100.00;101754.00;6129138;23;20002;-81
2021/04/07 08:58:09;;;;;;;27.30;5.68;;;;;;;5.44;100.00;101747.00;6128877;23;20013;-81
2021/04/07 09:00:37;;;;;;;38.72;7.28;;;;;;;5.50;100.00;101756.56;6122652;23;20211;-80
2021/04/07 09:03:14;;;;;;;34.88;5.40;;;;;;;5.52;100.00;101748.66;6125114;23;20010;-82
2021/04/07 09:05:48;;;;;;;29.38;5.65;;;;;;;5.52;100.00;101756.53;6128062;23;20297;-83
2021/04/07 09:08:25;;;;;;;29.52;4.80;;;;;;;5.38;100.00;101764.53;6126317;23;20060;-81
2021/04/07 09:10:56;;;;;;;31.92;5.65;;;;;;;5.33;100.00;101766.34;6126946;23;20698;-81
2021/04/07 09:13:30;;;;;;;31.35;5.60;;;;;;;5.39;100.00;101789.88;6126175;23;20068;-82
2021/04/07 09:16:15;;;;;;;27.45;5.35;;;;;;;5.51;100.00;101783.66;6129426;23;20037;-81
2021/04/07 09:18:42;;;;;;;27.85;4.93;;;;;;;5.72;100.00;101778.19;6134904;23;20002;-82
2021/04/07 09:21:19;;;;;;;34.50;4.47;;;;;;;5.83;100.00;101788.63;6146576;23;20017;-82
2021/04/07 09:23:58;;;;;;;25.60;4.65;;;;;;;5.58;100.00;101778.34;6130446;23;20002;-82
2021/04/07 09:26:26;;;;;;;21.00;4.28;;;;;;;5.87;100.00;101792.94;6130258;23;20028;-81
2021/04/07 09:28:53;;;;;;;19.98;4.20;;;;;;;6.00;100.00;101793.72;6130373;23;20089;-82
2021/04/07 09:31:27;;;;;;;31.48;6.05;;;;;;;6.10;100.00;101790.97;6155040;23;20005;-81
2021/04/07 09:33:56;;;;;;;38.83;6.35;;;;;;;6.31;100.00;101794.25;6154347;23;20391;-81
2021/04/07 09:36:36;;;;;;;30.27;5.68;;;;;;;6.23;100.00;101821.47;6154171;23;20495;-81
2021/04/07 09:39:05;;;;;;;37.65;5.97;;;;;;;6.38;100.00;101795.94;6151851;23;20005;-80
2021/04/07 09:41:34;;;;;;;24.50;3.55;;;;;;;6.36;100.00;101788.06;6154823;23;20043;-82
2021/04/07 09:44:01;;;;;;;34.88;4.50;;;;;;;6.22;100.00;101800.47;6153385;23;20006;-80
2021/04/07 09:46:27;;;;;;;26.40;3.70;;;;;;;6.19;100.00;101806.63;6154160;23;20009;-80
2021/04/07 09:48:55;;;;;;;26.85;3.42;;;;;;;6.34;100.00;101802.09;6154325;23;20052;-80
2021/04/07 09:51:25;;;;;;;32.13;5.78;;;;;;;6.34;100.00;101809.97;6154754;23;20090;-81
2021/04/07 09:53:52;;;;;;;25.17;4.82;;;;;;;6.16;100.00;101805.78;6154042;23;20039;-80
2021/04/07 09:56:18;;;;;;;18.80;4.13;;;;;;;6.03;100.00;101812.06;6154047;23;20008;-80
2021/04/07 09:58:49;;;;;;;25.85;3.78;;;;;;;5.62;100.00;101819.41;6152921;23;20645;-80
2021/04/07 10:02:04;;;;;;;24.10;4.10;;;;;;;4.86;100.00;101844.34;6134166;23;20029;-82
2021/04/07 10:04:31;;;;;;;26.33;4.60;;;;;;;4.45;100.00;101834.06;6153843;23;20009;-80
2021/04/07 10:07:21;;;;;;;17.45;4.40;;;;;;;4.02;100.00;101851.63;6130507;23;20004;-83
2021/04/07 10:09:52;;;;;;;29.67;5.90;;;;;;;3.95;100.00;101857.72;6142523;23;20181;-82
2021/04/07 10:12:22;;;;;;;21.63;4.32;;;;;;;3.70;100.00;101849.88;6130384;23;20009;-85
2021/04/07 10:14:50;;;;;;;45.40;4.82;;;;;;;3.87;100.00;101857.75;6154839;23;20084;-81
2021/04/07 10:17:20;;;;;;;27.27;4.05;;;;;;;3.96;100.00;101870.78;6152255;23;20006;-81
2021/04/07 10:19:47;;;;;;;28.25;4.75;;;;;;;3.97;100.00;101869.06;6153863;23;20031;-81
2021/04/07 10:22:19;;;;;;;20.05;4.95;;;;;;;4.31;100.00;101865.50;6153034;23;20094;-81
2021/04/07 10:24:47;;;;;;;26.67;4.63;;;;;;;4.73;100.00;101868.00;6153038;23;20857;-83
2021/04/07 10:27:23;;;;;;;26.02;3.50;;;;;;;5.13;100.00;101866.06;6154524;23;20013;-81
2021/04/07 10:29:49;;;;;;;28.02;5.63;;;;;;;4.92;100.00;101872.28;6151608;23;20009;-84
2021/04/07 10:32:17;;;;;;;16.73;3.22;;;;;;;5.49;100.00;101864.97;6153745;23;20001;-82
2021/04/07 10:34:42;;;;;;;23.67;5.50;;;;;;;5.51;100.00;101863.19;6156178;23;20104;-83
2021/04/07 10:37:18;;;;;;;19.98;4.32;;;;;;;5.46;100.00;101864.97;6130702;23;20585;-83
2021/04/07 10:39:45;;;;;;;23.40;3.78;;;;;;;6.04;100.00;101871.53;6158008;23;20013;-83
2021/04/07 10:42:31;;;;;;;17.92;3.65;;;;;;;5.52;100.00;101883.28;6153818;23;20005;-84
2021/04/07 10:45:02;;;;;;;20.02;2.97;;;;;;;4.31;100.00;101903.88;6158362;23;20060;-83
2021/04/07 10:47:40;;;;;;;14.63;2.40;;;;;;;4.01;100.00;101929.19;6155600;23;20084;-80
2021/04/07 10:50:06;;;;;;;24.17;4.32;;;;;;;3.94;100.00;101927.47;6126181;23;20575;-82
2021/04/07 10:52:34;;;;;;;12.70;3.10;;;;;;;3.78;100.00;101921.38;6152312;23;20013;-82
2021/04/07 10:55:04;;;;;;;13.07;2.40;;;;;;;3.62;100.00;101911.78;6127012;23;20424;-82
2021/04/07 10:57:47;;;;;;;11.98;3.95;;;;;;;3.76;100.00;101915.25;6127214;23;20088;-81
2021/04/07 11:00:26;;;;;;;13.70;2.67;;;;;;;3.79;100.00;101925.72;6153182;23;20124;-81
2021/04/07 11:02:52;;;;;;;6.85;1.50;;;;;;;3.89;100.00;101929.22;6154411;23;20025;-82
2021/04/07 11:05:20;;;;;;;15.05;2.65;;;;;;;4.09;100.00;101921.38;6128655;23;20093;-82
2021/04/07 11:07:46;;;;;;;11.77;3.33;;;;;;;4.23;100.00;101919.63;6128601;23;20195;-81
2021/04/07 11:10:16;;;;;;;9.55;2.15;;;;;;;4.38;100.00;101916.97;6152789;23;20100;-82
2021/04/07 11:12:44;;;;;;;14.68;3.05;;;;;;;4.71;100.00;101920.38;6130196;23;20441;-81
2021/04/07 11:15:15;;;;;;;17.90;2.95;;;;;;;5.01;100.00;101923.75;6130472;23;20005;-82
2021/04/07 11:17:53;;;;;;;20.65;3.92;;;;;;;5.58;100.00;101916.47;6130236;23;20447;-81
2021/04/07 11:20:36;;;;;;;16.33;4.03;;;;;;;5.66;100.00;101914.66;6154893;23;20017;-82
2021/04/07 11:23:05;;;;;;;17.13;2.88;;;;;;;5.05;100.00;101920.25;6094347;23;20073;-82
2021/04/07 11:29:58;;;;;;;9.50;2.03;;;;;;;3.88;100.00;101956.25;6094316;23;20017;-83
2021/04/07 11:32:38;;;;;;;5.80;1.33;;;;;;;4.07;100.00;101936.22;6094918;23;20584;-82
2021/04/07 11:37:51;;;;;;;21.13;2.58;;;;;;;3.99;100.00;101944.03;6099133;23;20006;-82
2021/04/07 11:40:39;;;;;;;9.80;1.60;;;;;;;4.23;100.00;101947.53;6093792;23;20036;-80